Time;durP1;ratioP1;P1;durP2;ratioP2;P2;SDS_P1;SDS_P2;PMS_P1;PMS_P2;Temp;Humidity;BMP_temperature;BMP_pressure;BME280_temperature;BME280_humidity;BME280_pressure;Samples;Min_cycle;Max_cycle;Signal;HPM_P1;HPM_P2
2021/11/09 00:00:55;;;;;;;17.80;12.73;;;;;;;-140.05;100.00;61859.38;5017478;28;21345;-69
2021/11/09 00:03:22;;;;;;;17.97;12.40;;;;;;;-140.05;100.00;61859.38;5030571;28;20443;-67
2021/11/09 00:06:09;;;;;;;16.33;12.20;;;;;;;-140.05;100.00;61859.38;5020419;28;20890;-68
2021/11/09 00:08:43;;;;;;;17.17;12.20;;;;;;;-140.05;100.00;61859.38;5030304;28;20491;-66
2021/11/09 00:11:10;;;;;;;18.00;12.23;;;;;;;-140.05;100.00;61859.38;5030795;28;20452;-66
2021/11/09 00:13:37;;;;;;;19.43;13.37;;;;;;;-140.05;100.00;61859.38;5019290;28;20891;-67
2021/11/09 00:16:05;;;;;;;17.43;12.17;;;;;;;-140.05;100.00;61859.38;5015715;28;20506;-64
2021/11/09 00:18:33;;;;;;;16.30;12.33;;;;;;;-140.05;100.00;61859.38;5001629;28;20437;-68
2021/11/09 00:21:01;;;;;;;18.97;12.67;;;;;;;-140.05;100.00;61859.38;5011180;28;20472;-67
2021/11/09 00:23:28;;;;;;;17.43;12.83;;;;;;;-140.05;100.00;61859.38;5018793;28;20447;-68
2021/11/09 00:25:56;;;;;;;17.00;12.83;;;;;;;-140.05;100.00;61859.38;5030575;28;20931;-72
2021/11/09 00:28:23;;;;;;;17.90;12.70;;;;;;;-140.05;100.00;61859.38;5027035;28;20522;-64
2021/11/09 00:30:50;;;;;;;18.23;13.57;;;;;;;-140.05;100.00;61859.38;5030252;28;20440;-65
2021/11/09 00:33:16;;;;;;;26.07;18.07;;;;;;;-140.05;100.00;61859.38;5029976;28;20478;-64
2021/11/09 00:35:44;;;;;;;24.90;17.47;;;;;;;-140.05;100.00;61859.38;5030697;28;20491;-64
2021/11/09 00:38:12;;;;;;;23.33;16.87;;;;;;;-140.05;100.00;61859.38;5030115;28;20542;-65
2021/11/09 00:40:42;;;;;;;24.73;16.03;;;;;;;-140.05;100.00;61859.38;5029971;28;20436;-68
2021/11/09 00:43:12;;;;;;;24.63;17.17;;;;;;;-140.05;100.00;61859.38;5017710;28;20452;-68
2021/11/09 00:45:39;;;;;;;22.37;16.23;;;;;;;-140.05;100.00;61859.38;5020901;28;20951;-68
2021/11/09 00:48:07;;;;;;;22.33;15.63;;;;;;;-140.05;100.00;61859.38;5020584;28;20483;-69
2021/11/09 00:50:38;;;;;;;22.83;15.90;;;;;;;-140.05;100.00;61859.38;5017536;28;20448;-68
2021/11/09 00:53:07;;;;;;;21.43;15.40;;;;;;;-140.05;100.00;61859.38;5015398;28;20479;-68
2021/11/09 00:55:35;;;;;;;21.87;15.77;;;;;;;-140.05;100.00;61859.38;5027480;28;20472;-69
2021/11/09 00:58:03;;;;;;;20.53;15.57;;;;;;;-140.05;100.00;61859.38;5029215;28;20830;-67
2021/11/09 01:00:32;;;;;;;21.00;15.37;;;;;;;-140.05;100.00;61859.38;5029904;28;20486;-69
2021/11/09 01:03:02;;;;;;;23.87;16.43;;;;;;;-140.05;100.00;61859.38;5029717;28;20463;-68
2021/11/09 01:05:31;;;;;;;26.23;16.13;;;;;;;-140.05;100.00;61859.38;5029702;28;20443;-67
2021/11/09 01:08:02;;;;;;;23.73;15.97;;;;;;;-140.05;100.00;61859.38;5029021;28;20483;-66
2021/11/09 01:10:33;;;;;;;23.00;15.90;;;;;;;-140.05;100.00;61859.38;5015314;28;20544;-66
2021/11/09 01:13:02;;;;;;;20.20;15.67;;;;;;;-140.05;100.00;61859.38;5019602;28;20825;-66
2021/11/09 01:15:30;;;;;;;20.97;15.47;;;;;;;-140.05;100.00;61859.38;5023419;28;20463;-66
2021/11/09 01:17:59;;;;;;;20.60;14.53;;;;;;;-140.05;100.00;61859.38;5019604;28;20451;-64
2021/11/09 01:20:28;;;;;;;19.10;14.17;;;;;;;-140.05;100.00;61859.38;5010678;28;20872;-66
2021/11/09 01:22:57;;;;;;;19.33;14.67;;;;;;;-140.05;100.00;61859.38;5012876;28;20517;-66
2021/11/09 01:25:26;;;;;;;21.30;15.40;;;;;;;-140.05;100.00;61859.38;5017068;28;20519;-64
2021/11/09 01:27:54;;;;;;;21.83;14.53;;;;;;;-140.05;100.00;61859.38;5022563;28;20507;-66
2021/11/09 01:30:22;;;;;;;21.63;14.53;;;;;;;-140.05;100.00;61859.38;5009882;28;20823;-67
2021/11/09 01:32:52;;;;;;;19.17;14.53;;;;;;;-140.05;100.00;61859.38;5009321;28;20495;-67
2021/11/09 01:35:19;;;;;;;18.53;13.83;;;;;;;-140.05;100.00;61859.38;5010056;28;20807;-69
2021/11/09 01:37:47;;;;;;;20.20;14.97;;;;;;;-140.05;100.00;61859.38;5021268;28;20542;-65
2021/11/09 01:40:16;;;;;;;18.80;13.73;;;;;;;-140.05;100.00;61859.38;5015121;28;20447;-68
2021/11/09 01:42:43;;;;;;;19.33;14.13;;;;;;;-140.05;100.00;61859.38;5023291;28;21433;-66
2021/11/09 01:45:12;;;;;;;21.33;14.63;;;;;;;-140.05;100.00;61859.38;5015933;28;20468;-69
2021/11/09 01:47:41;;;;;;;19.20;13.87;;;;;;;-140.05;100.00;61859.38;5017551;28;20446;-67
2021/11/09 01:50:10;;;;;;;20.13;14.63;;;;;;;-140.05;100.00;61859.38;5009437;28;20479;-68
2021/11/09 01:52:38;;;;;;;18.47;13.83;;;;;;;-140.05;100.00;61859.38;5008762;28;20539;-67
2021/11/09 01:55:08;;;;;;;18.80;14.13;;;;;;;-140.05;100.00;61859.38;5023043;28;20470;-65
2021/11/09 01:57:35;;;;;;;19.63;13.37;;;;;;;-140.05;100.00;61859.38;5022307;28;20441;-67
2021/11/09 02:00:13;;;;;;;19.17;13.43;;;;;;;-140.05;100.00;61859.38;5013131;28;20435;-68
2021/11/09 02:02:43;;;;;;;22.10;13.93;;;;;;;-140.05;100.00;61859.38;5015818;28;20538;-70
2021/11/09 02:05:13;;;;;;;16.23;12.83;;;;;;;-140.05;100.00;61859.38;5002225;28;21289;-69
2021/11/09 02:07:49;;;;;;;18.07;14.03;;;;;;;-140.05;100.00;61859.38;5003854;28;20554;-67
2021/11/09 02:10:18;;;;;;;17.30;13.20;;;;;;;-140.05;100.00;61859.38;5019551;28;20477;-64
2021/11/09 02:12:47;;;;;;;16.10;12.53;;;;;;;-140.05;100.00;61859.38;5025371;28;20995;-65
2021/11/09 02:15:16;;;;;;;18.30;13.33;;;;;;;-140.05;100.00;61859.38;5013496;28;20506;-66
2021/11/09 02:17:45;;;;;;;17.00;13.20;;;;;;;-140.05;100.00;61859.38;5017612;28;20471;-70
2021/11/09 02:20:16;;;;;;;18.50;13.40;;;;;;;-140.05;100.00;61859.38;5007682;28;20954;-65
2021/11/09 02:22:43;;;;;;;17.77;13.63;;;;;;;-140.05;100.00;61859.38;5018280;28;20478;-66
2021/11/09 02:25:16;;;;;;;18.33;12.97;;;;;;;-140.05;100.00;61859.38;5020588;28;21000;-66
2021/11/09 02:27:43;;;;;;;16.57;13.70;;;;;;;-140.05;100.00;61859.38;5028167;28;20992;-68
2021/11/09 02:30:14;;;;;;;16.93;13.33;;;;;;;-140.05;100.00;61859.38;5028702;28;20451;-67
2021/11/09 02:32:42;;;;;;;18.70;13.20;;;;;;;-140.05;100.00;61859.38;5015821;28;20518;-69
2021/11/09 02:35:10;;;;;;;17.33;12.67;;;;;;;-140.05;100.00;61859.38;5027286;28;20523;-69
2021/11/09 02:37:37;;;;;;;15.03;12.00;;;;;;;-140.05;100.00;61859.38;5017624;28;20481;-68
2021/11/09 02:40:05;;;;;;;16.23;12.47;;;;;;;-140.05;100.00;61859.38;5025657;28;20432;-68
2021/11/09 02:42:36;;;;;;;15.10;11.80;;;;;;;-140.05;100.00;61859.38;5028497;28;21031;-67
2021/11/09 02:45:14;;;;;;;16.13;11.87;;;;;;;-140.05;100.00;61859.38;5016895;28;20568;-65
2021/11/09 02:47:56;;;;;;;16.33;12.37;;;;;;;-140.05;100.00;61859.38;5019000;28;20447;-68
2021/11/09 02:50:27;;;;;;;16.60;12.40;;;;;;;-140.05;100.00;61859.38;5022645;28;20487;-66
2021/11/09 02:53:01;;;;;;;16.90;11.03;;;;;;;-140.05;100.00;61859.38;5012625;28;20455;-66
2021/11/09 02:55:35;;;;;;;15.90;11.83;;;;;;;-140.05;100.00;61859.38;5009423;28;20436;-65
2021/11/09 03:00:51;;;;;;;15.10;11.83;;;;;;;-140.05;100.00;61859.38;5021544;28;20783;-72
2021/11/09 03:03:27;;;;;;;15.53;11.60;;;;;;;-140.05;100.00;61859.38;5020026;28;20447;-67
2021/11/09 03:06:43;;;;;;;15.47;11.90;;;;;;;-140.05;100.00;61859.38;5019250;28;20760;-66
2021/11/09 03:11:49;;;;;;;17.23;12.13;;;;;;;-140.05;100.00;61859.38;5020787;28;20488;-71
2021/11/09 03:14:19;;;;;;;14.20;11.13;;;;;;;-140.05;100.00;61859.38;5022836;28;21257;-69
2021/11/09 03:16:46;;;;;;;19.07;12.03;;;;;;;-140.05;100.00;61859.38;5018034;28;20443;-68
2021/11/09 03:19:33;;;;;;;14.60;10.83;;;;;;;-140.05;100.00;61859.38;5022183;28;20539;-64
2021/11/09 03:46:54;;;;;;;16.10;11.73;;;;;;;-140.05;100.00;61859.38;5029753;28;20487;-66
2021/11/09 03:49:25;;;;;;;15.40;11.03;;;;;;;-140.05;100.00;61859.38;5022192;28;20498;-65
2021/11/09 03:51:53;;;;;;;14.30;11.30;;;;;;;-140.05;100.00;61859.38;5026187;28;20460;-73
2021/11/09 03:54:27;;;;;;;14.30;10.90;;;;;;;-140.05;100.00;61859.38;5029916;28;20455;-67
2021/11/09 04:05:07;;;;;;;14.60;11.83;;;;;;;-140.05;100.00;61859.38;5013125;28;20456;-65
2021/11/09 04:15:44;;;;;;;17.20;11.90;;;;;;;-140.05;100.00;61859.38;5019320;28;20521;-66
2021/11/09 04:21:20;;;;;;;13.60;11.30;;;;;;;-140.05;100.00;61859.38;4998611;28;20848;-68
2021/11/09 04:53:09;;;;;;;21.33;15.43;;;;;;;-140.05;100.00;61859.38;5029833;28;20487;-69
2021/11/09 05:12:04;;;;;;;23.37;15.13;;;;;;;-140.05;100.00;61859.38;5023454;28;20448;-69
2021/11/09 05:14:32;;;;;;;21.07;14.90;;;;;;;-140.05;100.00;61859.38;5022606;28;20440;-71
2021/11/09 05:17:01;;;;;;;18.93;14.87;;;;;;;-140.05;100.00;61859.38;5028598;28;20450;-70
2021/11/09 05:19:28;;;;;;;27.77;15.63;;;;;;;-140.05;100.00;61859.38;5029790;28;20780;-72
2021/11/09 05:21:55;;;;;;;25.90;15.27;;;;;;;-140.05;100.00;61859.38;5029531;28;20463;-71
2021/11/09 05:24:22;;;;;;;25.67;18.27;;;;;;;-140.05;100.00;61859.38;5016259;28;20452;-71
2021/11/09 05:26:49;;;;;;;23.93;16.90;;;;;;;-140.05;100.00;61859.38;5015912;28;20459;-71
2021/11/09 05:29:17;;;;;;;23.83;17.33;;;;;;;-140.05;100.00;61859.38;5023459;28;20542;-74
2021/11/09 05:31:44;;;;;;;28.80;18.07;;;;;;;-140.05;100.00;61859.38;5027461;28;20458;-73
2021/11/09 05:34:16;;;;;;;27.17;18.30;;;;;;;-140.05;100.00;61859.38;5018233;28;20444;-74
2021/11/09 05:36:45;;;;;;;32.90;21.10;;;;;;;-140.05;100.00;61859.38;5018276;28;20456;-71
2021/11/09 05:39:56;;;;;;;36.90;22.97;;;;;;;-140.05;100.00;61859.38;5019908;28;20459;-71
2021/11/09 05:42:03;;;;;;;33.93;23.57;;;;;;;-140.05;100.00;61859.38;5029187;28;20452;-71
2021/11/09 05:44:30;;;;;;;52.47;30.70;;;;;;;-140.05;100.00;61859.38;5025115;28;20487;-72
2021/11/09 05:46:57;;;;;;;45.83;28.23;;;;;;;-140.05;100.00;61859.38;5024965;28;20958;-64
2021/11/09 05:49:25;;;;;;;40.10;24.23;;;;;;;-140.05;100.00;61859.38;5018770;28;20484;-68
2021/11/09 05:51:52;;;;;;;54.77;31.23;;;;;;;-140.05;100.00;61859.38;5022764;28;20448;-67
2021/11/09 05:54:19;;;;;;;50.50;30.40;;;;;;;-140.05;100.00;61859.38;5019576;28;20449;-65
2021/11/09 05:56:46;;;;;;;50.67;30.13;;;;;;;-140.05;100.00;61859.38;5021241;28;20476;-71
2021/11/09 05:59:13;;;;;;;35.50;24.07;;;;;;;-140.05;100.00;61859.38;5028728;28;20440;-69
2021/11/09 06:01:40;;;;;;;29.97;20.03;;;;;;;-140.05;100.00;61859.38;5028414;28;21001;-65
2021/11/09 06:04:07;;;;;;;25.40;17.23;;;;;;;-140.05;100.00;61859.38;5023902;28;20468;-66
2021/11/09 06:06:34;;;;;;;30.73;19.23;;;;;;;-140.05;100.00;61859.38;5008926;28;20463;-65
2021/11/09 06:09:02;;;;;;;40.63;21.47;;;;;;;-140.05;100.00;61859.38;5012168;28;20487;-67
2021/11/09 06:11:28;;;;;;;56.30;27.63;;;;;;;-140.05;100.00;61859.38;5028337;28;20447;-67
2021/11/09 06:13:56;;;;;;;57.93;25.63;;;;;;;-140.05;100.00;61859.38;5028909;28;20461;-69
2021/11/09 06:16:22;;;;;;;58.03;26.87;;;;;;;-140.05;100.00;61859.38;5028207;28;20845;-66
2021/11/09 06:18:50;;;;;;;42.70;20.67;;;;;;;-140.05;100.00;61859.38;5031435;28;20466;-68
2021/11/09 06:21:17;;;;;;;65.43;30.37;;;;;;;-140.05;100.00;61859.38;5032732;28;20901;-66
2021/11/09 06:23:43;;;;;;;88.07;36.07;;;;;;;-140.05;100.00;61859.38;5032520;28;20848;-69
2021/11/09 06:26:11;;;;;;;111.63;44.93;;;;;;;-140.05;100.00;61859.38;5032514;28;20554;-68
2021/11/09 06:28:39;;;;;;;199.47;76.13;;;;;;;-140.05;100.00;61859.38;5031938;28;20436;-69
2021/11/09 06:31:06;;;;;;;220.17;87.80;;;;;;;-140.05;100.00;61859.38;5032711;28;21011;-68
2021/11/09 06:33:34;;;;;;;371.77;147.10;;;;;;;-140.05;100.00;61859.38;5012903;28;20437;-69
2021/11/09 06:36:01;;;;;;;347.40;141.93;;;;;;;-140.05;100.00;61859.38;5012647;28;20539;-66
2021/11/09 06:38:28;;;;;;;278.83;112.27;;;;;;;-140.05;100.00;61859.38;5030134;28;20550;-68
2021/11/09 06:40:55;;;;;;;263.70;112.17;;;;;;;-140.05;100.00;61859.38;5032120;28;20439;-68
2021/11/09 06:43:22;;;;;;;191.33;85.93;;;;;;;-140.05;100.00;61859.38;5029182;28;20882;-67
2021/11/09 06:45:49;;;;;;;169.13;76.70;;;;;;;-140.05;100.00;61859.38;5029821;28;20783;-66
2021/11/09 06:48:18;;;;;;;132.60;60.77;;;;;;;-140.05;100.00;61859.38;5031036;28;20443;-67
2021/11/09 06:50:45;;;;;;;110.83;53.67;;;;;;;-140.05;100.00;61859.38;5026333;28;20468;-66
2021/11/09 06:53:12;;;;;;;64.30;34.13;;;;;;;-140.05;100.00;61859.38;5024871;28;20461;-64
2021/11/09 06:55:39;;;;;;;53.43;27.73;;;;;;;-140.05;100.00;61859.38;5032538;28;20818;-64
2021/11/09 06:58:06;;;;;;;63.37;43.30;;;;;;;-140.05;100.00;61859.38;5021092;28;20463;-65
2021/11/09 07:00:34;;;;;;;91.13;71.23;;;;;;;-140.05;100.00;61859.38;5026653;28;20544;-64
2021/11/09 07:03:02;;;;;;;75.60;55.10;;;;;;;-140.05;100.00;61859.38;5021706;28;20478;-67
2021/11/09 07:05:29;;;;;;;25.57;17.60;;;;;;;-140.05;100.00;61859.38;5016150;28;20453;-69
2021/11/09 07:07:56;;;;;;;24.50;16.73;;;;;;;-140.05;100.00;61859.38;5019598;28;20475;-66
2021/11/09 07:10:24;;;;;;;23.90;16.77;;;;;;;-140.05;100.00;61859.38;5031712;28;20583;-68
2021/11/09 07:12:51;;;;;;;25.33;15.50;;;;;;;-140.05;100.00;61859.38;5031734;28;20455;-66
2021/11/09 07:15:20;;;;;;;30.83;18.43;;;;;;;-140.05;100.00;61859.38;5023925;28;20537;-66
2021/11/09 07:17:48;;;;;;;41.27;31.67;;;;;;;-140.05;100.00;61859.38;5031132;28;20447;-65
2021/11/09 07:20:18;;;;;;;58.73;43.67;;;;;;;-140.05;100.00;61859.38;5031088;28;20444;-65
2021/11/09 07:22:47;;;;;;;41.50;26.53;;;;;;;-140.05;100.00;61859.38;5021725;28;20444;-67
2021/11/09 07:25:15;;;;;;;39.63;26.60;;;;;;;-140.05;100.00;61859.38;5031315;28;20447;-65
2021/11/09 07:27:42;;;;;;;41.17;25.20;;;;;;;-140.05;100.00;61859.38;5030652;28;20466;-66
2021/11/09 07:30:11;;;;;;;32.73;23.53;;;;;;;-140.05;100.00;61859.38;5025241;28;20483;-68
2021/11/09 07:32:39;;;;;;;64.70;48.13;;;;;;;-140.05;100.00;61859.38;5027209;28;20510;-64
2021/11/09 07:35:08;;;;;;;109.13;84.83;;;;;;;-140.05;100.00;61859.38;5030871;28;20440;-67
2021/11/09 07:37:36;;;;;;;44.13;27.13;;;;;;;-140.05;100.00;61859.38;5030807;28;20447;-65
2021/11/09 07:40:05;;;;;;;42.23;25.10;;;;;;;-140.05;100.00;61859.38;5030984;28;20440;-64
2021/11/09 07:42:32;;;;;;;30.47;19.90;;;;;;;-140.05;100.00;61859.38;5030561;28;20447;-67
2021/11/09 07:45:00;;;;;;;34.17;21.00;;;;;;;-140.05;100.00;61859.38;5028084;28;20440;-68
2021/11/09 07:47:27;;;;;;;23.67;16.07;;;;;;;-140.05;100.00;61859.38;5030226;28;20901;-65
2021/11/09 07:49:54;;;;;;;24.83;16.90;;;;;;;-140.05;100.00;61859.38;5030791;28;20475;-65
2021/11/09 07:52:21;;;;;;;30.37;18.17;;;;;;;-140.05;100.00;61859.38;5025202;28;20479;-66
2021/11/09 07:54:50;;;;;;;23.53;16.07;;;;;;;-140.05;100.00;61859.38;5016756;28;20440;-63
2021/11/09 07:57:17;;;;;;;22.93;14.60;;;;;;;-140.05;100.00;61859.38;5016253;28;20445;-66
2021/11/09 08:02:27;;;;;;;20.73;14.10;;;;;;;-140.05;100.00;61859.38;5018442;28;20483;-67
2021/11/09 08:05:00;;;;;;;133.90;106.50;;;;;;;-140.05;100.00;61859.38;5015967;28;21142;-66
2021/11/09 08:07:32;;;;;;;54.03;40.33;;;;;;;-140.05;100.00;61859.38;5015125;28;20483;-64
2021/11/09 08:09:59;;;;;;;25.47;14.63;;;;;;;-140.05;100.00;61859.38;5017869;28;20484;-65
2021/11/09 08:12:26;;;;;;;25.13;13.60;;;;;;;-140.05;100.00;61859.38;5018020;28;20444;-65
2021/11/09 08:14:53;;;;;;;17.83;12.43;;;;;;;-140.05;100.00;61859.38;5015720;28;20544;-64
2021/11/09 08:17:20;;;;;;;17.03;12.37;;;;;;;-140.05;100.00;61859.38;5019775;28;20451;-64
2021/11/09 08:19:47;;;;;;;16.87;11.83;;;;;;;-140.05;100.00;61859.38;5016412;28;20771;-67
2021/11/09 08:22:14;;;;;;;18.30;11.70;;;;;;;-140.05;100.00;61859.38;5019172;28;20444;-66
2021/11/09 08:24:42;;;;;;;19.10;12.20;;;;;;;-140.05;100.00;61859.38;5015018;28;20448;-69
2021/11/09 08:27:11;;;;;;;14.73;11.00;;;;;;;-140.05;100.00;61859.38;5017355;28;20472;-65
2021/11/09 08:29:38;;;;;;;15.73;12.03;;;;;;;-140.05;100.00;61859.38;5016300;28;20994;-68
2021/11/09 08:32:10;;;;;;;21.10;13.57;;;;;;;-140.05;100.00;61859.38;5019389;28;20537;-63
2021/11/09 08:34:37;;;;;;;17.40;13.00;;;;;;;-140.05;100.00;61859.38;5018241;28;20889;-66
2021/11/09 08:37:05;;;;;;;20.53;13.50;;;;;;;-140.05;100.00;61859.38;5022964;28;20466;-64
2021/11/09 08:39:40;;;;;;;19.10;12.03;;;;;;;-140.05;100.00;61859.38;5012337;28;20514;-65
2021/11/09 08:44:41;;;;;;;67.13;56.13;;;;;;;-140.05;100.00;61859.38;5022051;28;20451;-65
2021/11/09 08:47:11;;;;;;;18.67;12.67;;;;;;;-140.05;100.00;61859.38;5015975;28;20965;-62
2021/11/09 08:49:40;;;;;;;21.73;12.87;;;;;;;-140.05;100.00;61859.38;5030028;28;20471;-68
2021/11/09 08:52:13;;;;;;;22.40;12.53;;;;;;;-140.05;100.00;61859.38;5028676;28;20518;-67
2021/11/09 08:54:59;;;;;;;17.30;12.03;;;;;;;-140.05;100.00;61859.38;5029486;28;20492;-66
2021/11/09 09:05:27;;;;;;;17.60;12.33;;;;;;;-140.05;100.00;61859.38;5021874;28;20440;-64
2021/11/09 09:07:54;;;;;;;18.40;12.30;;;;;;;-140.05;100.00;61859.38;5017811;28;20550;-67
2021/11/09 09:10:21;;;;;;;20.40;12.93;;;;;;;-140.05;100.00;61859.38;5027231;28;20469;-67
2021/11/09 09:12:48;;;;;;;20.57;12.73;;;;;;;-140.05;100.00;61859.38;5027178;28;20447;-65
2021/11/09 09:15:17;;;;;;;18.67;12.50;;;;;;;-140.05;100.00;61859.38;5027775;28;20436;-65
2021/11/09 09:17:45;;;;;;;30.77;22.50;;;;;;;-140.05;100.00;61859.38;5019575;28;21041;-65
2021/11/09 09:20:23;;;;;;;40.50;29.20;;;;;;;-140.05;100.00;61859.38;5026094;28;20976;-66
2021/11/09 09:23:02;;;;;;;16.93;12.63;;;;;;;-140.05;100.00;61859.38;5014859;28;20958;-65
2021/11/09 09:33:26;;;;;;;15.47;11.03;;;;;;;-140.05;100.00;61859.38;5010124;28;20499;-65
2021/11/09 09:57:27;;;;;;;14.13;10.77;;;;;;;-140.05;100.00;61859.38;5017009;28;20436;-63
2021/11/09 09:59:56;;;;;;;15.07;11.20;;;;;;;-140.05;100.00;61859.38;5022363;28;20464;-66
2021/11/09 10:02:30;;;;;;;17.60;11.13;;;;;;;-140.05;100.00;61859.38;5019784;28;20460;-67
2021/11/09 10:05:11;;;;;;;16.87;11.57;;;;;;;-140.05;100.00;61859.38;5026302;28;20985;-68
2021/11/09 10:07:40;;;;;;;74.97;47.93;;;;;;;-140.05;100.00;61859.38;5012402;28;20480;-66
2021/11/09 10:10:10;;;;;;;72.57;61.77;;;;;;;-140.05;100.00;61859.38;5013575;28;20498;-64
2021/11/09 10:12:44;;;;;;;17.27;11.90;;;;;;;-140.05;100.00;61859.38;5013082;28;20455;-64
2021/11/09 10:15:14;;;;;;;17.63;11.83;;;;;;;-140.05;100.00;61859.38;5013389;28;20901;-64
2021/11/09 10:17:46;;;;;;;16.83;10.93;;;;;;;-140.05;100.00;61859.38;5013044;28;20551;-61
2021/11/09 10:20:20;;;;;;;16.13;11.37;;;;;;;-140.05;100.00;61859.38;5012991;28;20547;-67
2021/11/09 10:23:04;;;;;;;17.70;11.27;;;;;;;-140.05;100.00;61859.38;5012986;28;20830;-65
2021/11/09 10:25:32;;;;;;;16.40;11.63;;;;;;;-140.05;100.00;61859.38;5023002;28;20965;-63
2021/11/09 10:28:08;;;;;;;17.30;12.47;;;;;;;-140.05;100.00;61859.38;5011954;28;20448;-63
2021/11/09 10:30:39;;;;;;;16.23;11.50;;;;;;;-140.05;100.00;61859.38;5011810;28;20476;-66
2021/11/09 10:33:11;;;;;;;33.17;29.27;;;;;;;-140.05;100.00;61859.38;5020891;28;20447;-65
2021/11/09 10:35:38;;;;;;;102.17;80.17;;;;;;;-140.05;100.00;61859.38;5026122;28;20447;-65
2021/11/09 10:38:05;;;;;;;83.20;68.87;;;;;;;-140.05;100.00;61859.38;5026215;28;20823;-63
2021/11/09 10:40:42;;;;;;;17.03;12.60;;;;;;;-140.05;100.00;61859.38;5028165;28;20521;-64
2021/11/09 10:43:10;;;;;;;18.70;12.50;;;;;;;-140.05;100.00;61859.38;5021815;28;20445;-62
2021/11/09 10:45:39;;;;;;;19.83;13.23;;;;;;;-140.05;100.00;61859.38;5025172;28;20443;-62
2021/11/09 10:48:09;;;;;;;17.10;12.20;;;;;;;-140.05;100.00;61859.38;5025320;28;20450;-63
2021/11/09 10:50:39;;;;;;;16.80;12.37;;;;;;;-140.05;100.00;61859.38;5028256;28;20486;-62
2021/11/09 10:53:35;;;;;;;18.70;13.00;;;;;;;-140.05;100.00;61859.38;5026884;28;20797;-63
2021/11/09 11:04:39;;;;;;;18.07;12.47;;;;;;;-140.05;100.00;61859.38;5025547;28;20521;-65
2021/11/09 11:07:09;;;;;;;18.57;12.33;;;;;;;-140.05;100.00;61859.38;5028276;28;20566;-65
2021/11/09 11:09:38;;;;;;;14.97;10.33;;;;;;;-140.05;100.00;61859.38;5022076;28;20836;-63
2021/11/09 11:12:14;;;;;;;18.30;12.50;;;;;;;-140.05;100.00;61859.38;5029227;28;20568;-64
2021/11/09 11:14:45;;;;;;;15.50;10.67;;;;;;;-140.05;100.00;61859.38;5027947;28;20531;-65
2021/11/09 11:17:17;;;;;;;24.07;12.50;;;;;;;-140.05;100.00;61859.38;5029564;28;20954;-63
2021/11/09 11:19:51;;;;;;;17.27;11.87;;;;;;;-140.05;100.00;61859.38;5029052;28;20507;-64
2021/11/09 11:22:21;;;;;;;19.60;11.77;;;;;;;-140.05;100.00;61859.38;5025839;28;20517;-64
2021/11/09 11:24:51;;;;;;;22.10;11.13;;;;;;;-140.05;100.00;61859.38;5027535;28;20831;-64
2021/11/09 11:27:19;;;;;;;17.10;11.03;;;;;;;-140.05;100.00;61859.38;5025910;28;20922;-64
2021/11/09 11:29:47;;;;;;;16.30;9.87;;;;;;;-140.05;100.00;61859.38;5024721;28;20445;-65
2021/11/09 11:32:18;;;;;;;13.43;9.10;;;;;;;-140.05;100.00;61859.38;5021845;28;20495;-65
2021/11/09 11:34:45;;;;;;;15.00;10.27;;;;;;;-140.05;100.00;61859.38;5028502;28;20988;-66
2021/11/09 11:37:14;;;;;;;12.40;8.80;;;;;;;-140.05;100.00;61859.38;5029859;28;20440;-66
2021/11/09 11:39:42;;;;;;;14.47;9.63;;;;;;;-140.05;100.00;61859.38;5022928;28;21001;-66
2021/11/09 11:42:16;;;;;;;11.50;8.70;;;;;;;-140.05;100.00;61859.38;5025897;28;20440;-63
2021/11/09 11:44:54;;;;;;;22.30;8.97;;;;;;;-140.05;100.00;61859.38;5030267;28;20445;-63
2021/11/09 11:47:21;;;;;;;11.00;7.63;;;;;;;-140.05;100.00;61859.38;5029830;28;20436;-63
2021/11/09 11:49:57;;;;;;;9.90;7.37;;;;;;;-140.05;100.00;61859.38;5028030;28;20443;-64
2021/11/09 11:52:43;;;;;;;12.60;7.90;;;;;;;-140.05;100.00;61859.38;5026443;28;20456;-62
2021/11/09 11:55:21;;;;;;;7.20;5.90;;;;;;;-140.05;100.00;61859.38;5027872;28;20506;-64
2021/11/09 11:57:51;;;;;;;12.43;6.43;;;;;;;-140.05;100.00;61859.38;5022526;28;20451;-63
2021/11/09 12:00:56;;;;;;;8.20;5.60;;;;;;;-140.05;100.00;61859.38;5024512;28;20439;-63
2021/11/09 12:03:23;;;;;;;7.83;4.60;;;;;;;-140.05;100.00;61859.38;5017557;28;20501;-63
2021/11/09 12:05:53;;;;;;;11.97;7.23;;;;;;;-140.05;100.00;61859.38;5011765;28;20551;-63
2021/11/09 12:08:42;;;;;;;11.40;7.27;;;;;;;-140.05;100.00;61859.38;5016258;28;20471;-63
2021/11/09 12:11:35;;;;;;;5.67;4.10;;;;;;;-140.05;100.00;61859.38;5022242;28;20487;-63
2021/11/09 12:14:12;;;;;;;4.90;4.07;;;;;;;-140.05;100.00;61859.38;5024407;28;20441;-63
2021/11/09 12:16:39;;;;;;;4.57;3.60;;;;;;;-140.05;100.00;61859.38;5014922;28;20447;-63
2021/11/09 12:19:06;;;;;;;5.17;3.80;;;;;;;-140.05;100.00;61859.38;5025099;28;20535;-62
2021/11/09 12:21:38;;;;;;;3.87;3.27;;;;;;;-140.05;100.00;61859.38;5025057;28;21111;-63
2021/11/09 12:24:16;;;;;;;5.90;4.03;;;;;;;-140.05;100.00;61859.38;5025165;28;20444;-61
2021/11/09 12:26:55;;;;;;;6.70;4.50;;;;;;;-140.05;100.00;61859.38;5029368;28;20489;-62
2021/11/09 12:29:49;;;;;;;6.80;4.73;;;;;;;-140.05;100.00;61859.38;5024021;28;20550;-63
2021/11/09 12:32:32;;;;;;;76.77;59.10;;;;;;;-140.05;100.00;61859.38;5025810;28;20484;-63
2021/11/09 12:35:12;;;;;;;103.53;73.87;;;;;;;-140.05;100.00;61859.38;5026041;28;20978;-63
2021/11/09 12:38:03;;;;;;;6.53;4.87;;;;;;;-140.05;100.00;61859.38;5024965;28;20456;-62
2021/11/09 12:40:49;;;;;;;5.47;4.13;;;;;;;-140.05;100.00;61859.38;5020413;28;20454;-63
2021/11/09 12:43:16;;;;;;;5.73;4.03;;;;;;;-140.05;100.00;61859.38;5018387;28;20453;-62
2021/11/09 12:45:51;;;;;;;3.67;3.13;;;;;;;-140.05;100.00;61859.38;5021770;28;20514;-64
2021/11/09 12:48:25;;;;;;;4.93;3.63;;;;;;;-140.05;100.00;61859.38;5024817;28;20488;-62
2021/11/09 12:50:57;;;;;;;5.47;3.40;;;;;;;-140.05;100.00;61859.38;5029334;28;20475;-64
2021/11/09 12:53:25;;;;;;;3.77;3.33;;;;;;;-140.05;100.00;61859.38;5028922;28;21311;-64
2021/11/09 12:56:15;;;;;;;5.53;3.33;;;;;;;-140.05;100.00;61859.38;5017951;28;20817;-65
2021/11/09 12:59:02;;;;;;;4.43;2.93;;;;;;;-140.05;100.00;61859.38;5021122;28;21083;-63
2021/11/09 13:01:41;;;;;;;5.03;2.80;;;;;;;-140.05;100.00;61859.38;5021213;28;20467;-63
2021/11/09 13:04:16;;;;;;;3.57;2.47;;;;;;;-140.05;100.00;61859.38;5019858;28;20451;-63
2021/11/09 13:09:47;;;;;;;4.33;2.73;;;;;;;-140.05;100.00;61859.38;5019019;28;20468;-63
2021/11/09 13:12:21;;;;;;;3.93;2.77;;;;;;;-140.05;100.00;61859.38;5023171;28;20519;-64
2021/11/09 13:14:58;;;;;;;3.30;2.60;;;;;;;-140.05;100.00;61859.38;5020025;28;20602;-63
2021/11/09 13:17:41;;;;;;;5.40;2.80;;;;;;;-140.05;100.00;61859.38;5023906;28;20452;-64
2021/11/09 13:22:58;;;;;;;6.17;4.70;;;;;;;-140.05;100.00;61859.38;5024076;28;20539;-63
2021/11/09 13:25:42;;;;;;;4.10;2.80;;;;;;;-140.05;100.00;61859.38;5025967;28;20555;-64
2021/11/09 13:28:14;;;;;;;3.83;2.97;;;;;;;-140.05;100.00;61859.38;5026121;28;20440;-63
2021/11/09 13:30:55;;;;;;;8.20;3.17;;;;;;;-140.05;100.00;61859.38;5015453;28;20480;-65
2021/11/09 13:33:25;;;;;;;5.23;3.40;;;;;;;-140.05;100.00;61859.38;5024789;28;20444;-63
2021/11/09 13:35:54;;;;;;;6.57;3.17;;;;;;;-140.05;100.00;61859.38;5026757;28;20439;-62
2021/11/09 13:38:35;;;;;;;5.60;3.17;;;;;;;-140.05;100.00;61859.38;5022105;28;20490;-61
2021/11/09 13:41:21;;;;;;;4.10;3.13;;;;;;;-140.05;100.00;61859.38;5022901;28;20479;-62
2021/11/09 13:43:57;;;;;;;4.77;3.33;;;;;;;-140.05;100.00;61859.38;5025252;28;20459;-62
2021/11/09 13:46:29;;;;;;;6.03;3.80;;;;;;;-140.05;100.00;61859.38;5024667;28;20447;-64